ADDS METAR Data INFO

IDs: Format: Raw Decoded Include TAF

Data at: 0847 UTC 18 Apr 2015

Region: TOP
KATL 180752Z 06007KT 2SM -DZ BR BKN004 OVC018 17/16 A2997 RMK AO2 SFC VIS 6 RAE26DZB08 SLP145 CIG 003V005 P0001 T01720161

KBOS 180754Z 29010KT 10SM CLR 12/07 A2991 RMK AO2 SLP127 T01170067

KBWI 180754Z 00000KT 10SM SCT250 13/12 A2997 RMK AO2 SLP148 T01280117 $

KCLE 180751Z 18004KT 10SM CLR 11/07 A3002 RMK AO2 SLP165 T01060072

KCLT 180752Z 32004KT 7SM BKN004 BKN009 OVC100 16/15 A3000 RMK AO2 RAE0654 SLP152 P0000 T01610150

KCVG 180752Z 00000KT 10SM CLR 13/07 A3006 RMK AO2 SLP171 T01280072

KDCA 180752Z 00000KT 10SM BKN250 17/14 A2998 RMK AO2 SLP152 T01720139

KDEN 180829Z 35006KT 10SM BKN009 BKN150 02/02 A2999 RMK AO2 T00220017 $

KDFW 180753Z 06007KT 10SM BKN110 17/17 A2992 RMK AO2 SLP125 T01720167

KDTW 180753Z 00000KT 10SM CLR 11/07 A3001 RMK AO2 SLP162 T01060067

KEWR 180751Z 35005KT 10SM BKN070 BKN250 15/08 A2997 RMK AO2 SLP146 T01500078

KFLL 180753Z 00000KT 10SM FEW027 FEW045 26/22 A2997 RMK AO2 SLP147 T02560217

KIAD 180752Z 00000KT 10SM BKN220 12/11 A2999 RMK AO2 SLP153 T01220106

KIAH 180828Z 34008KT 10SM SCT006 BKN015 OVC100 21/20 A2984 RMK AO2 RAE17 P0001

KJFK 180751Z 32004KT 10SM FEW070 14/08 A2997 RMK AO2 SLP148 T01440078

KLAS 180756Z 22004KT 10SM CLR 19/M09 A2992 RMK AO2 SLP114 T01941094 402720122 $

KLAX 180753Z 23004KT 10SM CLR 16/10 A3003 RMK AO2 SLP165 T01610100 402330133

KLGA 180751Z 31003KT 10SM FEW070 14/07 A2995 RMK AO2 SLP143 T01440067 $

KMCO 180833Z 18003KT 3SM R35L/2800VP6000FT BR BCFG OVC002 22/22 A2995 RMK AO2 VIS NE-SE 1 T02170217

KMDW 180753Z 22007KT 10SM SCT075 BKN095 18/09 A3001 RMK AO2 SLP155 T01830094

KMEM 180754Z 00000KT 8SM SCT250 17/15 A2999 RMK AO2 SLP154 T01670150

KMIA 180753Z 00000KT 10SM CLR 25/22 A2998 RMK AO2 SLP150 T02500217

KMSP 180753Z 00000KT 10SM FEW250 11/02 A3006 RMK AO2 SLP177 T01060017

KORD 180751Z 24005KT 10SM SCT070 17/08 A3000 RMK AO2 SLP156 T01720083

KPDX 180753Z 00000KT 10SM CLR 12/07 A3028 RMK AO2 SLP251 T01170067 402280056

KPHL 180754Z 11003KT 8SM BKN055 14/12 A2998 RMK AO2 SLP152 T01440117 $

KPHX 180751Z 11004KT 10SM CLR 20/M06 A2993 RMK AO2 SLP121 T02001056

KPIT 180751Z 00000KT 10SM FEW250 10/07 A3002 RMK AO2 SLP172 T01000072

KSAN 180751Z 00000KT 10SM FEW010 18/06 A3005 RMK AO2 SLP177 T01780061 402440144

KSEA 180753Z 36003KT 10SM CLR 11/06 A3033 RMK AO2 SLP276 T01060061 401890061 $

KSFO 180756Z 30008KT 10SM FEW003 11/11 A3007 RMK AO2 SLP183 T01060106 402110106

KSLC 180753Z 00000KT 10SM FEW100 09/02 A3002 RMK AO2 SLP144 T00890022

KSTL 180751Z 08003KT 8SM SCT150 18/13 A3001 RMK AO2 SLP153 T01830128

KTPA 180753Z 00000KT 10SM SCT015 24/21 A2997 RMK AO2 SLP147 T02440211